createdAt,value
2018-11-26T00:02:37.109Z,4.40
2018-11-26T00:07:39.643Z,4.50
2018-11-26T00:12:42.201Z,4.50
2018-11-26T00:17:44.717Z,4.50
2018-11-26T00:22:47.247Z,4.50
2018-11-26T00:27:49.758Z,4.40
2018-11-26T00:32:52.282Z,4.40
2018-11-26T00:37:54.868Z,4.40
2018-11-26T00:42:57.437Z,4.30
2018-11-26T00:47:59.947Z,4.30
2018-11-26T00:53:02.462Z,4.30
2018-11-26T00:58:05.196Z,4.30
2018-11-26T01:03:07.740Z,4.30
2018-11-26T01:08:10.287Z,4.30
2018-11-26T01:13:12.821Z,4.30
2018-11-26T01:18:15.362Z,4.30
2018-11-26T01:23:17.964Z,4.30
2018-11-26T01:28:20.517Z,4.20
2018-11-26T01:33:23.088Z,4.20
2018-11-26T01:38:25.638Z,4.20
2018-11-26T01:43:28.169Z,4.20
2018-11-26T01:48:30.680Z,4.20
2018-11-26T01:53:33.221Z,4.20
2018-11-26T01:58:35.752Z,4.50
2018-11-26T02:03:38.297Z,4.20
2018-11-26T02:08:40.817Z,4.20
2018-11-26T02:13:43.336Z,4.10
2018-11-26T02:18:45.889Z,4.20
2018-11-26T02:23:48.468Z,4.20
2018-11-26T02:28:51.049Z,4.20
2018-11-26T02:33:54.417Z,4.20
2018-11-26T02:38:56.959Z,4.20
2018-11-26T02:43:59.492Z,4.20
2018-11-26T02:49:02.100Z,4.20
2018-11-26T02:54:04.915Z,4.20
2018-11-26T02:59:07.438Z,4.20
2018-11-26T03:04:13.926Z,4.10
2018-11-26T03:09:16.468Z,5.60
2018-11-26T03:14:18.997Z,4.10
2018-11-26T03:19:21.513Z,4.10
2018-11-26T03:24:24.074Z,4.10
2018-11-26T03:29:26.718Z,4.10
2018-11-26T03:34:29.269Z,4.10
2018-11-26T03:39:31.788Z,4.10
2018-11-26T03:44:34.287Z,4.10
2018-11-26T03:49:36.819Z,4.10
2018-11-26T03:54:39.376Z,4.00
2018-11-26T03:59:41.888Z,4.10
2018-11-26T04:04:45.336Z,4.10
2018-11-26T04:09:47.882Z,4.10
2018-11-26T04:14:50.421Z,4.10
2018-11-26T04:19:52.950Z,4.00
2018-11-26T04:24:55.472Z,4.10
2018-11-26T04:29:57.977Z,4.00
2018-11-26T04:35:00.489Z,4.10
2018-11-26T04:40:03.090Z,4.10
2018-11-26T04:45:07.248Z,4.10
2018-11-26T04:50:11.568Z,4.00
2018-11-26T04:55:14.068Z,4.00
2018-11-26T05:00:16.590Z,4.10
2018-11-26T05:05:19.097Z,4.00
2018-11-26T05:10:21.620Z,4.00
2018-11-26T05:15:24.145Z,4.00
2018-11-26T05:20:26.912Z,4.00
2018-11-26T05:25:29.425Z,4.00
2018-11-26T05:30:31.969Z,4.00
2018-11-26T05:35:34.493Z,4.00
2018-11-26T05:40:37.062Z,4.00
2018-11-26T05:45:39.658Z,4.00
2018-11-26T05:50:42.193Z,4.00
2018-11-26T05:55:44.720Z,4.10
2018-11-26T06:00:47.238Z,4.00
2018-11-26T06:05:49.776Z,4.00
2018-11-26T06:10:52.357Z,4.00
2018-11-26T06:15:54.913Z,4.00
2018-11-26T06:20:57.484Z,3.90
2018-11-26T06:26:00.032Z,3.90
2018-11-26T06:31:02.548Z,4.00
2018-11-26T06:36:05.265Z,4.00
2018-11-26T06:41:07.804Z,4.00
2018-11-26T06:46:10.372Z,3.90
2018-11-26T06:51:12.936Z,4.00
2018-11-26T06:56:15.485Z,4.00
2018-11-26T07:01:18.033Z,4.00
2018-11-26T07:06:20.553Z,3.90
2018-11-26T07:11:23.073Z,4.00
2018-11-26T07:16:25.589Z,4.00
2018-11-26T07:21:28.105Z,4.00
2018-11-26T07:26:30.622Z,4.00
2018-11-26T07:31:33.137Z,4.10
2018-11-26T07:36:35.653Z,4.10
2018-11-26T07:41:38.213Z,4.10
2018-11-26T07:46:40.749Z,4.10
2018-11-26T07:51:43.258Z,4.10
2018-11-26T07:56:45.804Z,4.20
2018-11-26T08:01:48.333Z,4.20
2018-11-26T08:06:51.140Z,4.20
2018-11-26T08:11:53.739Z,4.30
2018-11-26T08:16:56.256Z,4.50
2018-11-26T08:21:58.769Z,4.30
2018-11-26T08:27:01.284Z,4.40
2018-11-26T08:32:04.269Z,4.40
2018-11-26T08:37:12.576Z,4.40
2018-11-26T08:42:21.100Z,4.50
2018-11-26T08:47:29.289Z,4.60
2018-11-26T08:52:31.849Z,4.80
2018-11-26T08:57:34.401Z,4.90
2018-11-26T09:02:42.537Z,5.10
2018-11-26T09:07:45.061Z,5.20
2018-11-26T09:12:47.634Z,5.10
2018-11-26T09:17:50.196Z,5.10
2018-11-26T09:22:52.793Z,5.20
2018-11-26T09:27:55.387Z,5.30
2018-11-26T09:32:57.952Z,5.20
2018-11-26T09:38:00.580Z,5.20
2018-11-26T09:43:03.142Z,5.20
2018-11-26T09:48:05.772Z,5.30
2018-11-26T09:53:08.326Z,5.30
2018-11-26T09:58:10.877Z,5.30
2018-11-26T10:03:13.412Z,5.20
2018-11-26T10:08:15.924Z,5.20
2018-11-26T10:13:18.452Z,5.40
2018-11-26T10:18:21.018Z,5.40
2018-11-26T10:23:23.581Z,5.30
2018-11-26T10:28:26.341Z,5.30
2018-11-26T10:33:28.663Z,5.30
2018-11-26T10:38:31.194Z,5.40
2018-11-26T10:43:33.813Z,5.40
2018-11-26T10:48:36.377Z,5.60
2018-11-26T10:53:38.913Z,5.70
2018-11-26T10:58:41.533Z,5.90
2018-11-26T11:03:44.090Z,5.80
2018-11-26T11:08:46.688Z,5.70
2018-11-26T11:13:49.229Z,5.60
2018-11-26T11:18:51.743Z,5.60
2018-11-26T11:23:54.347Z,5.60
2018-11-26T11:28:56.907Z,5.50
2018-11-26T11:33:59.469Z,5.50
2018-11-26T11:39:02.041Z,5.40
2018-11-26T11:44:05.078Z,5.40
2018-11-26T11:49:07.635Z,5.30
2018-11-26T11:54:10.178Z,5.20
2018-11-26T11:59:12.720Z,5.20
2018-11-26T12:04:15.256Z,5.20
2018-11-26T12:09:17.784Z,5.20
2018-11-26T12:14:20.294Z,5.10
2018-11-26T12:19:22.844Z,5.00
2018-11-26T12:24:25.374Z,5.00
2018-11-26T12:29:27.915Z,4.90
2018-11-26T12:34:30.494Z,4.90
2018-11-26T12:39:33.170Z,4.80
2018-11-26T12:44:47.123Z,4.80
2018-11-26T12:49:49.858Z,4.80
2018-11-26T12:54:52.219Z,4.80
2018-11-26T12:59:54.784Z,4.90
2018-11-26T13:04:57.342Z,4.90
2018-11-26T13:09:59.878Z,4.90
2018-11-26T13:15:02.455Z,5.00
2018-11-26T13:20:10.394Z,5.10
2018-11-26T13:25:15.013Z,5.20
2018-11-26T13:30:19.969Z,5.30
2018-11-26T13:35:22.522Z,5.40
2018-11-26T13:40:25.041Z,5.50
2018-11-26T13:45:29.902Z,5.40
2018-11-26T13:50:34.015Z,5.50
2018-11-26T13:55:36.591Z,5.60
2018-11-26T14:00:39.127Z,5.50
2018-11-26T14:05:41.707Z,5.60
2018-11-26T14:10:44.255Z,5.60
2018-11-26T14:15:46.849Z,5.60
2018-11-26T14:20:49.407Z,5.60
2018-11-26T14:25:52.419Z,5.60
2018-11-26T14:30:54.955Z,5.50
2018-11-26T14:35:57.482Z,5.40
2018-11-26T14:41:00.044Z,5.40
2018-11-26T14:46:02.602Z,5.30
2018-11-26T14:51:05.216Z,5.20
2018-11-26T14:56:07.775Z,5.10
2018-11-26T15:01:10.350Z,5.00
2018-11-26T15:06:12.899Z,4.90
2018-11-26T15:11:15.467Z,4.80
2018-11-26T15:16:18.025Z,4.80
2018-11-26T15:21:20.543Z,4.70
2018-11-26T15:26:23.126Z,4.60
2018-11-26T15:31:25.711Z,4.60
2018-11-26T15:36:28.275Z,4.50
2018-11-26T15:41:30.843Z,4.40
2018-11-26T15:46:33.391Z,4.30
2018-11-26T15:51:35.947Z,4.30
2018-11-26T15:56:38.501Z,4.30
2018-11-26T16:01:41.084Z,4.20
2018-11-26T16:06:43.630Z,4.20
2018-11-26T16:11:46.166Z,4.20
2018-11-26T16:16:48.720Z,4.20
2018-11-26T16:21:51.268Z,4.10
2018-11-26T16:26:53.837Z,4.10
2018-11-26T16:31:56.407Z,4.20
2018-11-26T16:36:58.971Z,4.10
2018-11-26T16:42:01.554Z,4.00
2018-11-26T16:47:04.415Z,3.90
2018-11-26T16:52:07.111Z,3.80
2018-11-26T16:57:09.663Z,3.60
2018-11-26T17:02:12.259Z,3.60
2018-11-26T17:07:15.051Z,3.60
2018-11-26T17:12:17.655Z,3.50
2018-11-26T17:17:20.231Z,3.50
2018-11-26T17:22:22.810Z,3.40
2018-11-26T17:27:25.417Z,3.40
2018-11-26T17:32:27.992Z,3.40
2018-11-26T17:37:30.809Z,3.30
2018-11-26T17:42:33.363Z,3.30
2018-11-26T17:47:35.951Z,3.20
2018-11-26T17:52:38.573Z,3.20
2018-11-26T17:57:41.117Z,3.20
2018-11-26T18:02:44.330Z,3.20
2018-11-26T18:07:51.934Z,3.20
2018-11-26T18:12:54.503Z,3.20
2018-11-26T18:17:58.497Z,3.20
2018-11-26T18:23:01.181Z,3.20
2018-11-26T18:28:07.695Z,3.20
2018-11-26T18:33:10.313Z,3.20
2018-11-26T18:38:12.968Z,3.20
2018-11-26T18:43:15.550Z,3.20
2018-11-26T18:48:18.124Z,3.20
2018-11-26T18:53:20.682Z,3.10
2018-11-26T18:58:23.285Z,3.10
2018-11-26T19:03:25.849Z,3.10
2018-11-26T19:08:28.399Z,3.10
2018-11-26T19:13:35.033Z,3.10
2018-11-26T19:18:37.642Z,3.10
2018-11-26T19:23:40.237Z,3.10
2018-11-26T19:28:42.836Z,3.10
2018-11-26T19:33:45.393Z,3.10
2018-11-26T19:43:50.487Z,3.10
2018-11-26T19:48:53.100Z,3.10
2018-11-26T19:53:55.760Z,3.00
2018-11-26T19:58:59.190Z,3.00
2018-11-26T20:04:15.782Z,3.00
2018-11-26T20:14:25.687Z,2.90
2018-11-26T20:19:23.476Z,2.90
2018-11-26T20:24:26.068Z,2.90
2018-11-26T20:29:28.704Z,4.00
2018-11-26T20:34:31.318Z,2.90
2018-11-26T20:39:34.605Z,2.90
2018-11-26T20:44:37.178Z,2.80
2018-11-26T20:49:39.737Z,2.80
2018-11-26T20:54:42.290Z,2.80
2018-11-26T20:59:45.405Z,2.70
2018-11-26T21:04:47.958Z,2.70
2018-11-26T21:09:50.524Z,2.70
2018-11-26T21:14:53.052Z,2.70
2018-11-26T21:19:55.595Z,2.70
2018-11-26T21:24:58.137Z,2.70
2018-11-26T21:30:00.697Z,2.70
2018-11-26T21:35:03.303Z,2.70
2018-11-26T21:40:07.830Z,5.50
2018-11-26T21:45:15.005Z,2.70
2018-11-26T21:50:17.556Z,2.70
2018-11-26T21:55:20.150Z,2.80
2018-11-26T22:00:25.070Z,2.70
2018-11-26T22:05:27.615Z,2.80
2018-11-26T22:10:30.185Z,2.80
2018-11-26T22:15:32.732Z,2.80
2018-11-26T22:20:35.403Z,2.70
2018-11-26T22:25:37.955Z,2.70
2018-11-26T22:35:43.104Z,2.70
2018-11-26T22:40:45.646Z,2.70
2018-11-26T22:45:48.187Z,2.80
2018-11-26T22:50:51.723Z,2.80
2018-11-26T22:55:54.270Z,2.80
2018-11-26T23:00:56.839Z,2.70
2018-11-26T23:05:59.465Z,2.70
2018-11-26T23:11:02.010Z,2.70
2018-11-26T23:16:04.698Z,2.70
2018-11-26T23:21:07.268Z,2.60
2018-11-26T23:26:09.809Z,2.60
2018-11-26T23:31:12.370Z,2.50
2018-11-26T23:36:14.908Z,2.50
2018-11-26T23:41:17.424Z,2.50
2018-11-26T23:46:20.577Z,2.50
2018-11-26T23:51:23.154Z,2.60
2018-11-26T23:56:25.713Z,2.50
